Yakubu Gowon Airport

Airport
ICAO code: 
DNJO
IATA Code: 
JOS
Summary
ICAO Region: 
AFI
Territory: 
Location: 
Heipang, Plateau State
Serving: 
Jos
Elevation: 
4232 ft
Coordinates: 
Aerial View: 
9° 38' 17.448" N, 8° 52' 4.944" E
Metar
Observation
DNJO 020500Z 10009KT CAVOK 13/05 Q1017
Station
Jos
Date/Time
2021-12-02 05:00:00
Wind direction
100°
Wind speed
09 kts
Lowest cloud amount
clouds and visibility OK
Temperature
13°C
Dew point
5°C
Humidity
58%
QNH
1017 hPa
Weather condition
n/a

Yakubu Gowon Airport, also known as Jos Airport, is an airport serving Jos, the capital of the Plateau State of Nigeria.

Climatology

Tropical savanna climate (Köppen climate classification Aw

Runways

Designator Length Width Surface Rops
10/28 3001 45 ASP No/No
Airport map: 
Aerial View: 

Accidents and Serious Incidents at or in the vicinity of DNJO

SKYbrary Partners:

Safety knowledge contributed by: